sensor_id;sensor_type;location;lat;lon;timestamp;pressure;altitude;pressure_sealevel;temperature;humidity
80397;BME280;69721;55.894;-3.052;2023-05-02T00:00:55;102011.20;;;6.88;54.52
80397;BME280;69721;55.894;-3.052;2023-05-02T00:03:20;102015.58;;;6.75;53.52
80397;BME280;69721;55.894;-3.052;2023-05-02T00:05:46;102015.05;;;8.01;51.97
80397;BME280;69721;55.894;-3.052;2023-05-02T00:08:11;102019.66;;;7.62;52.36
80397;BME280;69721;55.894;-3.052;2023-05-02T00:10:37;102020.69;;;7.75;52.07
80397;BME280;69721;55.894;-3.052;2023-05-02T00:13:02;102023.79;;;8.07;51.02
80397;BME280;69721;55.894;-3.052;2023-05-02T00:15:28;102019.84;;;8.34;49.89
80397;BME280;69721;55.894;-3.052;2023-05-02T00:17:53;102024.71;;;8.09;50.69
80397;BME280;69721;55.894;-3.052;2023-05-02T00:20:19;102030.80;;;7.80;51.18
80397;BME280;69721;55.894;-3.052;2023-05-02T00:22:45;102031.28;;;7.51;51.50
80397;BME280;69721;55.894;-3.052;2023-05-02T00:25:11;102026.94;;;8.42;50.57
80397;BME280;69721;55.894;-3.052;2023-05-02T00:27:36;102031.47;;;8.05;50.92
80397;BME280;69721;55.894;-3.052;2023-05-02T00:30:02;102027.91;;;8.46;49.86
80397;BME280;69721;55.894;-3.052;2023-05-02T00:32:27;102033.26;;;8.38;49.44
80397;BME280;69721;55.894;-3.052;2023-05-02T00:34:53;102033.33;;;8.80;49.12
80397;BME280;69721;55.894;-3.052;2023-05-02T00:37:18;102036.89;;;9.23;47.90
80397;BME280;69721;55.894;-3.052;2023-05-02T00:39:43;102038.15;;;8.37;49.35
80397;BME280;69721;55.894;-3.052;2023-05-02T00:42:08;102035.58;;;8.57;49.05
80397;BME280;69721;55.894;-3.052;2023-05-02T00:44:34;102034.10;;;8.60;48.98
80397;BME280;69721;55.894;-3.052;2023-05-02T00:47:00;102035.20;;;8.71;49.36
80397;BME280;69721;55.894;-3.052;2023-05-02T00:49:25;102036.63;;;9.01;48.19
80397;BME280;69721;55.894;-3.052;2023-05-02T00:51:52;102041.50;;;8.87;49.05
80397;BME280;69721;55.894;-3.052;2023-05-02T00:54:16;102035.86;;;9.18;48.64
80397;BME280;69721;55.894;-3.052;2023-05-02T00:56:41;102034.53;;;8.55;48.67
80397;BME280;69721;55.894;-3.052;2023-05-02T00:59:08;102039.14;;;7.71;50.44
80397;BME280;69721;55.894;-3.052;2023-05-02T01:01:39;102033.59;;;8.45;49.12
80397;BME280;69721;55.894;-3.052;2023-05-02T01:04:07;102035.65;;;8.61;49.61
80397;BME280;69721;55.894;-3.052;2023-05-02T01:06:38;102036.92;;;7.59;49.76
80397;BME280;69721;55.894;-3.052;2023-05-02T01:08:54;102034.02;;;7.74;50.22
80397;BME280;69721;55.894;-3.052;2023-05-02T01:11:22;102035.22;;;8.12;49.62
80397;BME280;69721;55.894;-3.052;2023-05-02T01:13:42;102033.72;;;8.25;49.16
80397;BME280;69721;55.894;-3.052;2023-05-02T01:16:07;102033.17;;;7.80;49.21
80397;BME280;69721;55.894;-3.052;2023-05-02T01:18:35;102033.06;;;8.35;48.30
80397;BME280;69721;55.894;-3.052;2023-05-02T01:21:00;102033.69;;;7.94;48.19
80397;BME280;69721;55.894;-3.052;2023-05-02T01:23:29;102037.13;;;8.03;48.33
80397;BME280;69721;55.894;-3.052;2023-05-02T01:25:58;102038.02;;;8.44;48.12
80397;BME280;69721;55.894;-3.052;2023-05-02T01:28:20;102037.23;;;8.05;47.47
80397;BME280;69721;55.894;-3.052;2023-05-02T01:30:42;102039.92;;;8.63;46.89
80397;BME280;69721;55.894;-3.052;2023-05-02T01:33:05;102041.24;;;8.67;47.04
80397;BME280;69721;55.894;-3.052;2023-05-02T01:35:32;102036.79;;;8.83;46.98
80397;BME280;69721;55.894;-3.052;2023-05-02T01:37:57;102033.59;;;8.45;47.06
80397;BME280;69721;55.894;-3.052;2023-05-02T01:40:23;102031.07;;;8.68;47.12
80397;BME280;69721;55.894;-3.052;2023-05-02T01:42:50;102036.47;;;7.13;49.40
80397;BME280;69721;55.894;-3.052;2023-05-02T01:45:13;102033.42;;;8.42;48.36
80397;BME280;69721;55.894;-3.052;2023-05-02T01:47:39;102032.91;;;8.49;47.95
80397;BME280;69721;55.894;-3.052;2023-05-02T01:50:06;102036.84;;;7.51;48.49
80397;BME280;69721;55.894;-3.052;2023-05-02T01:52:30;102034.30;;;8.43;47.43
80397;BME280;69721;55.894;-3.052;2023-05-02T01:54:57;102033.87;;;8.03;47.27
80397;BME280;69721;55.894;-3.052;2023-05-02T01:57:21;102032.61;;;8.06;47.89
80397;BME280;69721;55.894;-3.052;2023-05-02T01:59:49;102031.35;;;8.04;47.88
80397;BME280;69721;55.894;-3.052;2023-05-02T02:02:13;102033.22;;;7.76;48.09
80397;BME280;69721;55.894;-3.052;2023-05-02T02:04:38;102035.71;;;8.34;48.00
80397;BME280;69721;55.894;-3.052;2023-05-02T02:07:07;102033.91;;;8.60;47.55
80397;BME280;69721;55.894;-3.052;2023-05-02T02:09:30;102041.94;;;7.97;48.06
80397;BME280;69721;55.894;-3.052;2023-05-02T02:12:00;102044.85;;;8.18;48.73
80397;BME280;69721;55.894;-3.052;2023-05-02T02:14:23;102038.67;;;8.63;47.62
80397;BME280;69721;55.894;-3.052;2023-05-02T02:16:47;102038.80;;;8.81;47.62
80397;BME280;69721;55.894;-3.052;2023-05-02T02:19:13;102041.88;;;7.94;47.28
80397;BME280;69721;55.894;-3.052;2023-05-02T02:21:38;102042.36;;;7.88;48.42
80397;BME280;69721;55.894;-3.052;2023-05-02T02:24:04;102035.13;;;8.02;47.48
80397;BME280;69721;55.894;-3.052;2023-05-02T02:26:28;102032.03;;;8.19;46.68
80397;BME280;69721;55.894;-3.052;2023-05-02T02:28:54;102029.04;;;8.57;46.56
80397;BME280;69721;55.894;-3.052;2023-05-02T02:31:19;102030.24;;;8.43;46.69
80397;BME280;69721;55.894;-3.052;2023-05-02T02:33:44;102037.81;;;7.91;47.79
80397;BME280;69721;55.894;-3.052;2023-05-02T02:36:17;102039.19;;;8.46;47.89
80397;BME280;69721;55.894;-3.052;2023-05-02T02:38:41;102038.08;;;8.70;47.46
80397;BME280;69721;55.894;-3.052;2023-05-02T02:41:11;102038.18;;;8.19;47.17
80397;BME280;69721;55.894;-3.052;2023-05-02T02:43:32;102039.24;;;8.54;47.19
80397;BME280;69721;55.894;-3.052;2023-05-02T02:46:01;102039.06;;;8.44;47.05
80397;BME280;69721;55.894;-3.052;2023-05-02T02:48:22;102038.33;;;8.05;46.56
80397;BME280;69721;55.894;-3.052;2023-05-02T02:50:53;102036.35;;;8.08;47.46
80397;BME280;69721;55.894;-3.052;2023-05-02T02:53:15;102036.73;;;8.00;47.46
80397;BME280;69721;55.894;-3.052;2023-05-02T02:55:39;102032.17;;;8.02;47.27
80397;BME280;69721;55.894;-3.052;2023-05-02T02:58:09;102032.21;;;8.17;47.12
80397;BME280;69721;55.894;-3.052;2023-05-02T03:00:27;102035.69;;;7.98;47.31
80397;BME280;69721;55.894;-3.052;2023-05-02T03:02:53;102031.82;;;8.12;47.21
80397;BME280;69721;55.894;-3.052;2023-05-02T03:05:17;102033.00;;;7.63;47.90
80397;BME280;69721;55.894;-3.052;2023-05-02T03:07:43;102029.87;;;8.34;46.32
80397;BME280;69721;55.894;-3.052;2023-05-02T03:10:08;102029.84;;;8.48;47.29
80397;BME280;69721;55.894;-3.052;2023-05-02T03:12:34;102030.21;;;8.62;47.53
80397;BME280;69721;55.894;-3.052;2023-05-02T03:15:08;102033.17;;;7.69;48.85
80397;BME280;69721;55.894;-3.052;2023-05-02T03:17:25;102031.23;;;7.97;48.24
80397;BME280;69721;55.894;-3.052;2023-05-02T03:19:50;102032.96;;;8.31;47.53
80397;BME280;69721;55.894;-3.052;2023-05-02T03:22:16;102036.00;;;7.83;48.77
80397;BME280;69721;55.894;-3.052;2023-05-02T03:24:41;102031.29;;;8.18;48.17
80397;BME280;69721;55.894;-3.052;2023-05-02T03:27:07;102027.44;;;8.46;47.25
80397;BME280;69721;55.894;-3.052;2023-05-02T03:29:33;102036.30;;;7.20;50.36
80397;BME280;69721;55.894;-3.052;2023-05-02T03:31:58;102039.70;;;7.24;49.17
80397;BME280;69721;55.894;-3.052;2023-05-02T03:34:24;102037.59;;;7.51;48.96
80397;BME280;69721;55.894;-3.052;2023-05-02T03:36:49;102038.95;;;7.94;48.99
80397;BME280;69721;55.894;-3.052;2023-05-02T03:39:15;102038.39;;;7.85;47.98
80397;BME280;69721;55.894;-3.052;2023-05-02T03:41:41;102040.63;;;7.64;48.55
80397;BME280;69721;55.894;-3.052;2023-05-02T03:44:06;102040.85;;;8.22;48.09
80397;BME280;69721;55.894;-3.052;2023-05-02T03:46:32;102040.22;;;8.13;47.96
80397;BME280;69721;55.894;-3.052;2023-05-02T03:48:57;102041.50;;;7.78;47.78
80397;BME280;69721;55.894;-3.052;2023-05-02T03:51:23;102045.02;;;7.62;48.52
80397;BME280;69721;55.894;-3.052;2023-05-02T03:53:48;102042.27;;;7.79;48.43
80397;BME280;69721;55.894;-3.052;2023-05-02T03:56:16;102041.17;;;7.97;47.72
80397;BME280;69721;55.894;-3.052;2023-05-02T03:58:39;102040.53;;;7.80;47.74
80397;BME280;69721;55.894;-3.052;2023-05-02T04:01:12;102040.24;;;7.95;48.07
80397;BME280;69721;55.894;-3.052;2023-05-02T04:03:30;102041.36;;;8.04;47.17
80397;BME280;69721;55.894;-3.052;2023-05-02T04:05:56;102040.55;;;8.11;47.32
80397;BME280;69721;55.894;-3.052;2023-05-02T04:08:22;102040.20;;;7.22;48.38
80397;BME280;69721;55.894;-3.052;2023-05-02T04:10:49;102040.85;;;7.47;49.06
80397;BME280;69721;55.894;-3.052;2023-05-02T04:13:12;102038.32;;;7.80;48.12
80397;BME280;69721;55.894;-3.052;2023-05-02T04:15:38;102033.10;;;7.05;49.46
80397;BME280;69721;55.894;-3.052;2023-05-02T04:18:03;102036.59;;;6.92;48.95
80397;BME280;69721;55.894;-3.052;2023-05-02T04:20:29;102035.62;;;8.16;47.96
80397;BME280;69721;55.894;-3.052;2023-05-02T04:22:55;102031.29;;;8.02;46.87
80397;BME280;69721;55.894;-3.052;2023-05-02T04:25:22;102028.00;;;7.79;47.15
80397;BME280;69721;55.894;-3.052;2023-05-02T04:27:47;102031.11;;;7.26;48.52
80397;BME280;69721;55.894;-3.052;2023-05-02T04:30:12;102033.58;;;7.24;48.79
80397;BME280;69721;55.894;-3.052;2023-05-02T04:32:37;102028.26;;;7.94;47.25
80397;BME280;69721;55.894;-3.052;2023-05-02T04:35:03;102026.74;;;8.11;47.35
80397;BME280;69721;55.894;-3.052;2023-05-02T04:37:28;102031.98;;;7.42;48.24
80397;BME280;69721;55.894;-3.052;2023-05-02T04:39:54;102036.71;;;7.03;48.56
80397;BME280;69721;55.894;-3.052;2023-05-02T04:42:19;102031.88;;;7.70;47.79
80397;BME280;69721;55.894;-3.052;2023-05-02T04:44:45;102033.47;;;8.03;46.38
80397;BME280;69721;55.894;-3.052;2023-05-02T04:47:10;102034.74;;;8.11;46.00
80397;BME280;69721;55.894;-3.052;2023-05-02T04:49:36;102037.07;;;8.53;45.55
80397;BME280;69721;55.894;-3.052;2023-05-02T04:52:01;102039.92;;;8.11;45.35
80397;BME280;69721;55.894;-3.052;2023-05-02T04:54:27;102039.98;;;8.40;45.87
80397;BME280;69721;55.894;-3.052;2023-05-02T04:56:52;102039.10;;;8.44;46.32
80397;BME280;69721;55.894;-3.052;2023-05-02T04:59:18;102042.79;;;7.61;47.41
80397;BME280;69721;55.894;-3.052;2023-05-02T05:01:43;102046.55;;;7.30;48.45
80397;BME280;69721;55.894;-3.052;2023-05-02T05:04:09;102045.00;;;7.67;47.23
80397;BME280;69721;55.894;-3.052;2023-05-02T05:06:34;102044.41;;;7.49;47.66
80397;BME280;69721;55.894;-3.052;2023-05-02T05:08:59;102053.16;;;7.80;47.70
80397;BME280;69721;55.894;-3.052;2023-05-02T05:11:25;102052.07;;;8.29;46.60
80397;BME280;69721;55.894;-3.052;2023-05-02T05:13:50;102056.00;;;7.99;46.02
80397;BME280;69721;55.894;-3.052;2023-05-02T05:16:16;102054.82;;;8.34;46.69
80397;BME280;69721;55.894;-3.052;2023-05-02T05:18:41;102055.92;;;8.48;45.53
80397;BME280;69721;55.894;-3.052;2023-05-02T05:21:07;102060.33;;;8.67;45.89
80397;BME280;69721;55.894;-3.052;2023-05-02T05:23:32;102065.84;;;7.76;47.46
80397;BME280;69721;55.894;-3.052;2023-05-02T05:25:58;102062.80;;;8.71;45.33
80397;BME280;69721;55.894;-3.052;2023-05-02T05:28:23;102072.12;;;7.45;47.56
80397;BME280;69721;55.894;-3.052;2023-05-02T05:30:49;102075.67;;;7.23;47.39
80397;BME280;69721;55.894;-3.052;2023-05-02T05:33:14;102079.83;;;7.93;47.11
80397;BME280;69721;55.894;-3.052;2023-05-02T05:35:40;102083.52;;;8.22;47.15
80397;BME280;69721;55.894;-3.052;2023-05-02T05:38:05;102082.88;;;8.35;47.24
80397;BME280;69721;55.894;-3.052;2023-05-02T05:40:31;102084.97;;;8.15;46.71
80397;BME280;69721;55.894;-3.052;2023-05-02T05:42:56;102083.26;;;9.15;45.84
80397;BME280;69721;55.894;-3.052;2023-05-02T05:45:22;102090.27;;;8.06;45.31
80397;BME280;69721;55.894;-3.052;2023-05-02T05:47:47;102088.97;;;9.27;44.51
80397;BME280;69721;55.894;-3.052;2023-05-02T05:50:13;102093.16;;;8.52;44.54
80397;BME280;69721;55.894;-3.052;2023-05-02T05:52:38;102096.02;;;8.94;43.87
80397;BME280;69721;55.894;-3.052;2023-05-02T05:55:05;102098.00;;;8.52;44.24
80397;BME280;69721;55.894;-3.052;2023-05-02T05:57:29;102096.52;;;8.64;44.70
80397;BME280;69721;55.894;-3.052;2023-05-02T05:59:55;102098.77;;;8.31;44.18
80397;BME280;69721;55.894;-3.052;2023-05-02T06:02:20;102095.97;;;8.99;44.84
80397;BME280;69721;55.894;-3.052;2023-05-02T06:04:46;102090.52;;;9.39;43.31
80397;BME280;69721;55.894;-3.052;2023-05-02T06:07:12;102094.49;;;9.39;44.49
80397;BME280;69721;55.894;-3.052;2023-05-02T06:09:37;102100.03;;;8.97;44.22
80397;BME280;69721;55.894;-3.052;2023-05-02T06:12:03;102097.65;;;9.17;44.30
80397;BME280;69721;55.894;-3.052;2023-05-02T06:14:28;102098.70;;;8.25;44.49
80397;BME280;69721;55.894;-3.052;2023-05-02T06:16:54;102096.16;;;9.45;43.88
80397;BME280;69721;55.894;-3.052;2023-05-02T06:19:19;102100.45;;;9.25;43.31
80397;BME280;69721;55.894;-3.052;2023-05-02T06:21:45;102099.97;;;9.34;43.18
80397;BME280;69721;55.894;-3.052;2023-05-02T06:24:10;102099.94;;;9.41;43.39
80397;BME280;69721;55.894;-3.052;2023-05-02T06:26:36;102109.09;;;8.08;44.40
80397;BME280;69721;55.894;-3.052;2023-05-02T06:29:01;102112.56;;;8.15;44.44
80397;BME280;69721;55.894;-3.052;2023-05-02T06:31:27;102116.10;;;8.23;46.23
80397;BME280;69721;55.894;-3.052;2023-05-02T06:33:53;102118.82;;;7.95;45.36
80397;BME280;69721;55.894;-3.052;2023-05-02T06:36:18;102119.45;;;8.20;46.09
80397;BME280;69721;55.894;-3.052;2023-05-02T06:38:44;102123.75;;;8.03;46.76
80397;BME280;69721;55.894;-3.052;2023-05-02T06:41:12;102120.21;;;8.23;45.45
80397;BME280;69721;55.894;-3.052;2023-05-02T06:43:35;102114.89;;;8.93;45.81
80397;BME280;69721;55.894;-3.052;2023-05-02T06:46:00;102117.55;;;8.48;45.87
80397;BME280;69721;55.894;-3.052;2023-05-02T06:48:27;102123.34;;;7.30;48.32
80397;BME280;69721;55.894;-3.052;2023-05-02T06:53:23;102127.08;;;7.95;47.08
80397;BME280;69721;55.894;-3.052;2023-05-02T06:55:43;102125.63;;;7.88;48.33
80397;BME280;69721;55.894;-3.052;2023-05-02T06:58:08;102125.95;;;8.31;47.52
80397;BME280;69721;55.894;-3.052;2023-05-02T07:00:33;102125.33;;;8.53;47.70
80397;BME280;69721;55.894;-3.052;2023-05-02T07:02:59;102124.83;;;7.94;48.83
80397;BME280;69721;55.894;-3.052;2023-05-02T07:05:25;102125.30;;;8.36;49.57
80397;BME280;69721;55.894;-3.052;2023-05-02T07:07:50;102126.40;;;7.74;49.51
80397;BME280;69721;55.894;-3.052;2023-05-02T07:10:16;102127.66;;;7.26;50.79
80397;BME280;69721;55.894;-3.052;2023-05-02T07:12:50;102129.55;;;6.94;52.64
80397;BME280;69721;55.894;-3.052;2023-05-02T07:15:16;102128.32;;;7.11;52.21
80397;BME280;69721;55.894;-3.052;2023-05-02T07:17:41;102129.53;;;8.18;50.28
80397;BME280;69721;55.894;-3.052;2023-05-02T07:20:09;102130.93;;;8.48;50.22
80397;BME280;69721;55.894;-3.052;2023-05-02T07:22:32;102132.61;;;8.82;48.61
80397;BME280;69721;55.894;-3.052;2023-05-02T07:24:59;102131.58;;;8.42;50.32
80397;BME280;69721;55.894;-3.052;2023-05-02T07:27:23;102138.01;;;6.75;52.29
80397;BME280;69721;55.894;-3.052;2023-05-02T07:29:49;102136.90;;;6.80;53.18
80397;BME280;69721;55.894;-3.052;2023-05-02T07:32:14;102136.54;;;6.83;53.07
80397;BME280;69721;55.894;-3.052;2023-05-02T07:34:40;102140.96;;;7.05;52.83
80397;BME280;69721;55.894;-3.052;2023-05-02T07:37:06;102146.62;;;6.83;53.45
80397;BME280;69721;55.894;-3.052;2023-05-02T07:39:37;102136.78;;;7.36;52.72
80397;BME280;69721;55.894;-3.052;2023-05-02T07:41:57;102141.36;;;7.57;52.64
80397;BME280;69721;55.894;-3.052;2023-05-02T07:44:22;102136.64;;;7.35;51.98
80397;BME280;69721;55.894;-3.052;2023-05-02T07:46:48;102138.63;;;8.31;50.72
80397;BME280;69721;55.894;-3.052;2023-05-02T07:49:13;102142.46;;;8.28;51.38
80397;BME280;69721;55.894;-3.052;2023-05-02T07:51:44;102141.99;;;8.05;51.16
80397;BME280;69721;55.894;-3.052;2023-05-02T07:54:14;102141.12;;;8.36;51.15
80397;BME280;69721;55.894;-3.052;2023-05-02T07:56:29;102140.92;;;7.13;51.71
80397;BME280;69721;55.894;-3.052;2023-05-02T07:58:55;102141.83;;;7.52;52.96
80397;BME280;69721;55.894;-3.052;2023-05-02T08:01:21;102143.22;;;7.80;52.37
80397;BME280;69721;55.894;-3.052;2023-05-02T08:03:46;102142.09;;;7.10;53.57
80397;BME280;69721;55.894;-3.052;2023-05-02T08:06:11;102143.10;;;7.30;53.42
80397;BME280;69721;55.894;-3.052;2023-05-02T08:08:37;102148.54;;;8.07;52.75
80397;BME280;69721;55.894;-3.052;2023-05-02T08:11:03;102152.41;;;7.85;52.33
80397;BME280;69721;55.894;-3.052;2023-05-02T08:13:28;102151.31;;;7.28;52.90
80397;BME280;69721;55.894;-3.052;2023-05-02T08:15:54;102155.19;;;7.81;52.23
80397;BME280;69721;55.894;-3.052;2023-05-02T08:18:19;102152.43;;;8.78;50.44
80397;BME280;69721;55.894;-3.052;2023-05-02T08:20:45;102153.02;;;7.19;52.82
80397;BME280;69721;55.894;-3.052;2023-05-02T08:23:10;102155.06;;;7.89;52.15
80397;BME280;69721;55.894;-3.052;2023-05-02T08:25:35;102152.36;;;8.68;50.99
80397;BME280;69721;55.894;-3.052;2023-05-02T08:28:01;102148.78;;;7.17;53.40
80397;BME280;69721;55.894;-3.052;2023-05-02T08:30:26;102150.63;;;8.39;51.43
80397;BME280;69721;55.894;-3.052;2023-05-02T08:32:52;102154.77;;;7.73;52.92
80397;BME280;69721;55.894;-3.052;2023-05-02T08:35:17;102154.41;;;8.35;51.65
80397;BME280;69721;55.894;-3.052;2023-05-02T08:37:43;102155.10;;;7.33;54.18
80397;BME280;69721;55.894;-3.052;2023-05-02T08:40:11;102155.36;;;7.36;54.09
80397;BME280;69721;55.894;-3.052;2023-05-02T08:42:34;102156.44;;;7.96;53.11
80397;BME280;69721;55.894;-3.052;2023-05-02T08:45:00;102160.34;;;8.06;53.69
80397;BME280;69721;55.894;-3.052;2023-05-02T08:47:25;102160.96;;;7.71;53.30
80397;BME280;69721;55.894;-3.052;2023-05-02T08:49:51;102162.60;;;6.71;54.98
80397;BME280;69721;55.894;-3.052;2023-05-02T08:52:17;102163.29;;;7.55;54.72
80397;BME280;69721;55.894;-3.052;2023-05-02T08:54:42;102160.46;;;6.71;56.05
80397;BME280;69721;55.894;-3.052;2023-05-02T08:57:07;102165.50;;;7.29;54.85
80397;BME280;69721;55.894;-3.052;2023-05-02T08:59:32;102162.71;;;7.04;54.95
80397;BME280;69721;55.894;-3.052;2023-05-02T09:02:03;102161.43;;;7.51;54.60
80397;BME280;69721;55.894;-3.052;2023-05-02T09:04:23;102163.95;;;7.31;54.44
80397;BME280;69721;55.894;-3.052;2023-05-02T09:06:48;102167.77;;;7.83;53.87
80397;BME280;69721;55.894;-3.052;2023-05-02T09:09:14;102167.69;;;7.95;52.99
80397;BME280;69721;55.894;-3.052;2023-05-02T09:11:40;102167.29;;;8.61;51.52
80397;BME280;69721;55.894;-3.052;2023-05-02T09:14:13;102165.83;;;9.29;50.04
80397;BME280;69721;55.894;-3.052;2023-05-02T09:16:37;102172.14;;;9.19;51.18
80397;BME280;69721;55.894;-3.052;2023-05-02T09:18:57;102173.83;;;8.92;50.45
80397;BME280;69721;55.894;-3.052;2023-05-02T09:21:23;102168.35;;;8.44;51.20
80397;BME280;69721;55.894;-3.052;2023-05-02T09:23:49;102170.38;;;7.54;53.28
80397;BME280;69721;55.894;-3.052;2023-05-02T09:26:15;102170.90;;;7.84;53.69
80397;BME280;69721;55.894;-3.052;2023-05-02T09:28:40;102167.22;;;8.09;53.07
80397;BME280;69721;55.894;-3.052;2023-05-02T09:31:07;102166.26;;;9.32;51.21
80397;BME280;69721;55.894;-3.052;2023-05-02T09:33:29;102171.02;;;8.60;51.81
80397;BME280;69721;55.894;-3.052;2023-05-02T09:35:54;102168.80;;;8.14;52.38
80397;BME280;69721;55.894;-3.052;2023-05-02T09:38:20;102171.57;;;8.59;52.71
80397;BME280;69721;55.894;-3.052;2023-05-02T09:40:52;102170.62;;;9.28;50.95
80397;BME280;69721;55.894;-3.052;2023-05-02T09:43:15;102174.02;;;8.28;52.35
80397;BME280;69721;55.894;-3.052;2023-05-02T09:45:36;102176.29;;;7.09;55.84
80397;BME280;69721;55.894;-3.052;2023-05-02T09:48:02;102174.84;;;6.90;56.40
80397;BME280;69721;55.894;-3.052;2023-05-02T09:50:38;102175.45;;;7.32;55.89
80397;BME280;69721;55.894;-3.052;2023-05-02T09:53:01;102173.00;;;7.36;55.83
80397;BME280;69721;55.894;-3.052;2023-05-02T09:55:21;102171.71;;;7.46;55.02
80397;BME280;69721;55.894;-3.052;2023-05-02T09:57:44;102170.69;;;7.40;55.39
80397;BME280;69721;55.894;-3.052;2023-05-02T10:00:11;102174.23;;;7.67;54.54
80397;BME280;69721;55.894;-3.052;2023-05-02T10:02:35;102173.55;;;8.29;54.65
80397;BME280;69721;55.894;-3.052;2023-05-02T10:05:01;102178.29;;;8.18;52.90
80397;BME280;69721;55.894;-3.052;2023-05-02T10:07:26;102182.68;;;8.95;54.08
80397;BME280;69721;55.894;-3.052;2023-05-02T10:09:54;102177.94;;;9.07;51.82
80397;BME280;69721;55.894;-3.052;2023-05-02T10:12:17;102176.42;;;8.09;52.67
80397;BME280;69721;55.894;-3.052;2023-05-02T10:14:47;102178.55;;;7.87;54.23
80397;BME280;69721;55.894;-3.052;2023-05-02T10:17:13;102185.52;;;8.55;53.61
80397;BME280;69721;55.894;-3.052;2023-05-02T10:19:40;102188.15;;;7.87;54.67
80397;BME280;69721;55.894;-3.052;2023-05-02T10:21:58;102185.45;;;8.46;53.21
80397;BME280;69721;55.894;-3.052;2023-05-02T10:24:25;102183.16;;;10.25;50.89
80397;BME280;69721;55.894;-3.052;2023-05-02T10:26:51;102184.79;;;10.17;49.82
80397;BME280;69721;55.894;-3.052;2023-05-02T10:29:15;102188.35;;;9.17;51.08
80397;BME280;69721;55.894;-3.052;2023-05-02T10:31:41;102184.49;;;9.98;50.35
80397;BME280;69721;55.894;-3.052;2023-05-02T10:34:07;102185.33;;;10.42;49.56
80397;BME280;69721;55.894;-3.052;2023-05-02T10:36:31;102187.67;;;10.99;48.04
80397;BME280;69721;55.894;-3.052;2023-05-02T10:38:56;102194.16;;;12.29;47.31
80397;BME280;69721;55.894;-3.052;2023-05-02T10:41:25;102190.22;;;12.58;44.59
80397;BME280;69721;55.894;-3.052;2023-05-02T10:43:49;102189.88;;;11.73;45.36
80397;BME280;69721;55.894;-3.052;2023-05-02T10:48:38;102175.22;;;11.86;46.34
80397;BME280;69721;55.894;-3.052;2023-05-02T10:51:05;102177.77;;;10.62;47.78
80397;BME280;69721;55.894;-3.052;2023-05-02T10:53:32;102176.66;;;12.26;46.62
80397;BME280;69721;55.894;-3.052;2023-05-02T10:58:21;102176.82;;;12.64;43.55
80397;BME280;69721;55.894;-3.052;2023-05-02T11:00:47;102178.69;;;12.20;44.09
80397;BME280;69721;55.894;-3.052;2023-05-02T11:03:12;102182.73;;;10.83;45.43
80397;BME280;69721;55.894;-3.052;2023-05-02T11:10:28;102187.70;;;10.37;47.22
80397;BME280;69721;55.894;-3.052;2023-05-02T11:12:55;102186.53;;;11.52;46.64
80397;BME280;69721;55.894;-3.052;2023-05-02T11:17:58;102185.64;;;10.57;48.23
80397;BME280;69721;55.894;-3.052;2023-05-02T11:20:17;102188.77;;;11.55;47.18
80397;BME280;69721;55.894;-3.052;2023-05-02T11:22:36;102192.08;;;12.10;46.29
80397;BME280;69721;55.894;-3.052;2023-05-02T11:25:03;102189.99;;;12.48;44.97
80397;BME280;69721;55.894;-3.052;2023-05-02T11:27:37;102196.44;;;11.01;46.22
80397;BME280;69721;55.894;-3.052;2023-05-02T11:29:53;102199.92;;;11.95;45.23
80397;BME280;69721;55.894;-3.052;2023-05-02T11:32:19;102200.57;;;11.37;46.47
80397;BME280;69721;55.894;-3.052;2023-05-02T11:34:45;102202.68;;;10.49;48.30
80397;BME280;69721;55.894;-3.052;2023-05-02T11:37:12;102201.82;;;9.89;49.94
80397;BME280;69721;55.894;-3.052;2023-05-02T11:39:35;102204.60;;;10.26;50.13
80397;BME280;69721;55.894;-3.052;2023-05-02T11:42:01;102198.97;;;10.86;48.17
80397;BME280;69721;55.894;-3.052;2023-05-02T11:44:25;102189.08;;;11.95;47.22
80397;BME280;69721;55.894;-3.052;2023-05-02T11:46:50;102186.74;;;11.21;47.63
80397;BME280;69721;55.894;-3.052;2023-05-02T11:49:16;102190.87;;;11.30;47.15
80397;BME280;69721;55.894;-3.052;2023-05-02T11:51:41;102186.03;;;11.79;47.13
80397;BME280;69721;55.894;-3.052;2023-05-02T11:54:07;102181.07;;;12.82;44.75
80397;BME280;69721;55.894;-3.052;2023-05-02T11:56:32;102183.36;;;13.20;44.36
80397;BME280;69721;55.894;-3.052;2023-05-02T11:58:58;102178.81;;;13.64;44.29
80397;BME280;69721;55.894;-3.052;2023-05-02T12:01:22;102174.99;;;14.38;44.22
80397;BME280;69721;55.894;-3.052;2023-05-02T12:03:48;102174.03;;;14.10;41.82
80397;BME280;69721;55.894;-3.052;2023-05-02T12:06:14;102166.00;;;14.44;42.14
80397;BME280;69721;55.894;-3.052;2023-05-02T12:08:39;102168.42;;;12.25;43.56
80397;BME280;69721;55.894;-3.052;2023-05-02T12:11:04;102159.02;;;13.47;44.40
80397;BME280;69721;55.894;-3.052;2023-05-02T12:13:30;102153.32;;;13.84;43.84
80397;BME280;69721;55.894;-3.052;2023-05-02T12:15:56;102159.15;;;13.16;42.79
80397;BME280;69721;55.894;-3.052;2023-05-02T12:18:23;102158.06;;;13.94;42.54
80397;BME280;69721;55.894;-3.052;2023-05-02T12:20:46;102157.43;;;13.64;43.09
80397;BME280;69721;55.894;-3.052;2023-05-02T12:23:12;102163.76;;;12.99;44.42
80397;BME280;69721;55.894;-3.052;2023-05-02T12:25:38;102167.57;;;13.00;42.66
80397;BME280;69721;55.894;-3.052;2023-05-02T12:28:03;102168.53;;;12.55;44.76
80397;BME280;69721;55.894;-3.052;2023-05-02T12:30:29;102165.29;;;12.93;43.46
80397;BME280;69721;55.894;-3.052;2023-05-02T12:32:57;102167.55;;;12.47;44.98
80397;BME280;69721;55.894;-3.052;2023-05-02T12:35:20;102171.63;;;12.42;44.75
80397;BME280;69721;55.894;-3.052;2023-05-02T12:37:44;102173.33;;;13.21;44.82
80397;BME280;69721;55.894;-3.052;2023-05-02T12:40:15;102165.26;;;13.26;44.20
80397;BME280;69721;55.894;-3.052;2023-05-02T12:42:35;102166.52;;;12.49;45.58
80397;BME280;69721;55.894;-3.052;2023-05-02T12:45:00;102169.55;;;12.71;45.17
80397;BME280;69721;55.894;-3.052;2023-05-02T12:47:26;102168.00;;;13.79;43.88
80397;BME280;69721;55.894;-3.052;2023-05-02T12:49:52;102169.87;;;13.75;43.72
80397;BME280;69721;55.894;-3.052;2023-05-02T12:52:17;102173.78;;;14.29;41.41